Farmersville's Hourly Summary for Saturday, March 18, 2017
Hour Temp
(f)
RH
(%)
Solar Rad.
(MJ/m2)
Rainfall
(in)
Wind
(mph)
3/18/2017 12:00 AM 69 72 0 0 1.25
3/18/2017 1:00 AM 68 72 0 0 2.49
3/18/2017 2:00 AM 67 72 0 0 3.53
3/18/2017 3:00 AM 66 76 0 0 2.41
3/18/2017 4:00 AM 65 81 0 0 2.11
3/18/2017 5:00 AM 63 86 0 0 0.86
3/18/2017 6:00 AM 62 91 0 0 0.16
3/18/2017 7:00 AM 61 99 0 0 0.56
3/18/2017 8:00 AM 62 99 0.01 0 1.15
3/18/2017 9:00 AM 63 99 0.15 0 3.38
3/18/2017 10:00 AM 64 100 0.34 0 5.73
3/18/2017 11:00 AM 65 100 0.57 0 3.65
3/18/2017 12:00 PM 66 96 0.75 0 1.1
3/18/2017 1:00 PM 68 84 0.85 0 0.34
3/18/2017 2:00 PM 70 75 1.24 0 1.63
3/18/2017 3:00 PM 72 69 1.7 0 3.69
3/18/2017 4:00 PM 74 67 2.01 0 4.33
3/18/2017 5:00 PM 75 65 1.74 0 5.42
3/18/2017 6:00 PM 75 64 1.19 0 5.57
3/18/2017 7:00 PM 74 68 0.54 0 5.41
3/18/2017 8:00 PM 71 71 0.05 0 3.59
3/18/2017 9:00 PM 68 77 0 0 4.11
3/18/2017 10:00 PM 66 81 0 0 4.39
3/18/2017 11:00 PM 65 85 0 0 4.6
Data Summary 67 81 11.14 0.00 2.98